na-svyazi.ru alexa rank chart, na-svyazi.ru alexa rank daily changes

na-svyazi.ru alexa rank chart, na-svyazi.ru alexa rank daily changes

na-svyazi.ru
Actual rank:
32 906

RANK HISTORY

Date Rank Diff
2018/02/21 32 906 -13 733
2018/02/20 46 639 +2 628
2018/02/19 44 011 +8 394
2018/02/18 35 617 +3 837
2018/02/17 31 780 -395
2018/02/16 32 175 -1 216
2018/02/15 33 391 -199
2018/02/14 33 590 -11 999
2018/02/13 45 589 +4 939
2018/02/12 40 650 +3 590
2018/02/11 37 060 +1 819
2018/02/10 35 241 -915
2018/02/09 36 156 -735
2018/02/08 36 891 +3 087
2018/02/07 33 804 -7 714
2018/02/06 41 518 +1 602
2018/02/05 39 916 +5 989
2018/02/04 33 927 -6 064
2018/02/03 39 991 +5 055
2018/02/02 34 936 +633
2018/02/01 34 303 +280
2018/01/31 34 023 -4 264
2018/01/30 38 287 +141
2018/01/29 38 146 -128
2018/01/28 38 274 +138
2018/01/27 38 136 +164
2018/01/26 37 972 -173
2018/01/25 38 145 -447
2018/01/24 38 592 -38
2018/01/23 38 630 +195
2018/01/22 38 435 +378
2018/01/21 38 057 +4
2018/01/20 38 053 -17
2018/01/19 38 070 -188
2018/01/18 38 258 -181
2018/01/17 38 439 +59
2018/01/16 38 380 +2
2018/01/15 38 378 +273
2018/01/14 38 105 -12
2018/01/13 38 117 +183
2018/01/12 37 934 -423
2018/01/11 38 357 -180
2018/01/10 38 537 +92
2018/01/09 38 445 +195
2018/01/08 38 250 +312
2018/01/07 37 938 +209
2018/01/06 37 729 +452
2018/01/05 37 277 +5
2018/01/04 37 272 +40
2018/01/03 37 232 +361
2018/01/02 36 871 +140
2018/01/01 36 731 +245
2017/12/31 36 486 +112
2017/12/30 36 374 +51
2017/12/29 36 323 -19
2017/12/28 36 342 -326
2017/12/27 36 668 -470
2017/12/26 37 138 +176
2017/12/25 36 962 +242
2017/12/24 36 720 -60
2017/12/23 36 780

WIDGET FOR YOUR SITE

DOMAINS WITH THE NEAREST RANK

Domain Rank
workupload.com 32 901
onelook.com 32 902
xatab-repack.net 32 903
biblia.com 32 904
geek.hr 32 905
na-svyazi.ru 32 906
insightly.com 32 907
peda.net 32 908
fonts.googleapis.com 32 909
pinnaclesys.com 32 910
arcticspeed.com 32 911

DOMAINS WITH THE NEAREST RANK BY TLD .ru

Domain Rank
tradelikeapro.ru 32 706
vsopen.ru 32 733
findpatent.ru 32 775
megaobuchalka.ru 32 854
izhevsk.ru 32 874
na-svyazi.ru 32 906
ubrr.ru 32 929
key.ru 32 941
rydo.ru 32 957
esquire.ru 32 968
armtek.ru 33 001